createdAt,value
2022-12-08T00:47:05.464Z,17.01
2022-12-08T00:49:33.356Z,17.00
2022-12-08T00:52:01.039Z,17.01
2022-12-08T00:54:28.566Z,17.00
2022-12-08T00:56:56.084Z,17.00
2022-12-08T00:59:23.847Z,17.00
2022-12-08T01:47:16.558Z,16.99
2022-12-08T01:49:44.157Z,16.96
2022-12-08T01:52:12.402Z,16.98
2022-12-08T01:54:40.941Z,16.97
2022-12-08T01:57:09.332Z,16.98
2022-12-08T01:59:37.494Z,16.98
2022-12-08T02:45:53.530Z,16.95
2022-12-08T02:48:21.139Z,16.95
2022-12-08T02:50:48.751Z,16.94
2022-12-08T02:55:47.614Z,16.94
2022-12-08T02:58:20.132Z,16.96
2022-12-08T03:46:12.476Z,16.93
2022-12-08T03:48:40.137Z,16.92
2022-12-08T03:51:07.752Z,16.92
2022-12-08T03:53:35.347Z,16.92
2022-12-08T03:56:04.362Z,16.91
2022-12-08T03:58:37.228Z,16.91
2022-12-08T04:47:39.525Z,16.89
2022-12-08T04:50:08.143Z,16.90
2022-12-08T04:52:35.839Z,16.89
2022-12-08T04:55:03.408Z,16.89
2022-12-08T04:57:31.035Z,16.88
2022-12-08T04:59:58.640Z,16.88
2022-12-08T05:31:40.361Z,16.86
2022-12-08T05:34:07.998Z,16.86
2022-12-08T05:36:35.631Z,16.87
2022-12-08T05:39:03.383Z,16.86
2022-12-08T05:41:31.000Z,16.88
2022-12-08T05:43:58.628Z,16.86
2022-12-08T05:46:26.453Z,16.86
2022-12-08T05:48:55.487Z,16.85
2022-12-08T05:51:23.523Z,16.84
2022-12-08T05:53:51.290Z,16.86
2022-12-08T05:56:18.971Z,16.87
2022-12-08T05:58:46.569Z,16.85
2022-12-08T06:01:19.499Z,16.83
2022-12-08T06:03:47.088Z,16.84
2022-12-08T06:06:16.015Z,16.85
2022-12-08T06:08:43.911Z,16.80
2022-12-08T06:11:11.639Z,16.83
2022-12-08T06:13:39.263Z,16.84
2022-12-08T06:16:09.873Z,16.85
2022-12-08T06:18:37.456Z,16.85
2022-12-08T06:21:05.482Z,16.86
2022-12-08T06:23:34.390Z,16.89
2022-12-08T06:26:03.071Z,16.88
2022-12-08T06:28:30.648Z,16.89
2022-12-08T06:30:58.226Z,16.87
2022-12-08T06:33:25.838Z,16.86
2022-12-08T06:35:53.400Z,16.88
2022-12-08T06:38:20.960Z,16.86
2022-12-08T06:40:55.802Z,16.86
2022-12-08T06:59:21.353Z,16.79
2022-12-08T07:01:48.967Z,16.81
2022-12-08T07:04:16.681Z,16.82
2022-12-08T07:06:44.600Z,16.82
2022-12-08T07:09:12.286Z,16.82
2022-12-08T07:11:39.885Z,16.81
2022-12-08T07:14:07.477Z,16.82
2022-12-08T07:16:36.532Z,16.83
2022-12-08T07:19:04.356Z,16.82
2022-12-08T07:21:32.039Z,16.82
2022-12-08T07:23:59.915Z,16.83
2022-12-08T07:26:27.834Z,16.83
2022-12-08T07:28:55.465Z,16.83
2022-12-08T07:31:23.618Z,16.83
2022-12-08T07:33:52.730Z,16.85
2022-12-08T07:36:20.438Z,16.88
2022-12-08T07:38:48.040Z,16.88
2022-12-08T07:41:15.735Z,16.85
2022-12-08T07:43:43.744Z,16.82
2022-12-08T07:46:12.743Z,16.86
2022-12-08T07:48:40.420Z,16.87
2022-12-08T07:51:09.464Z,16.89
2022-12-08T07:53:37.047Z,16.90
2022-12-08T07:56:06.512Z,16.90
2022-12-08T07:58:34.122Z,16.91
2022-12-08T08:01:01.876Z,16.88
2022-12-08T08:03:29.578Z,16.92
2022-12-08T08:05:57.185Z,16.93
2022-12-08T08:08:26.179Z,16.94
2022-12-08T08:10:53.883Z,16.93
2022-12-08T08:13:21.507Z,16.93
2022-12-08T08:15:49.214Z,16.94
2022-12-08T08:18:16.869Z,16.93
2022-12-08T08:20:44.484Z,16.94
2022-12-08T08:23:12.073Z,16.95
2022-12-08T08:25:41.053Z,16.96
2022-12-08T08:28:08.639Z,16.95
2022-12-08T08:30:36.497Z,16.94
2022-12-08T08:33:04.308Z,16.95
2022-12-08T08:35:31.911Z,16.96
2022-12-08T08:37:59.506Z,16.95
2022-12-08T08:40:27.051Z,16.95
2022-12-08T08:42:56.002Z,16.95
2022-12-08T08:45:23.605Z,16.95
2022-12-08T08:47:51.433Z,16.95
2022-12-08T08:50:19.015Z,16.94
2022-12-08T08:52:47.121Z,16.93
2022-12-08T08:55:14.794Z,16.92
2022-12-08T08:57:42.374Z,16.93
2022-12-08T09:00:12.322Z,16.92
2022-12-08T09:02:39.933Z,16.93
2022-12-08T09:05:08.124Z,16.93
2022-12-08T09:07:35.908Z,16.94
2022-12-08T09:10:04.689Z,16.93
2022-12-08T09:12:32.417Z,16.94
2022-12-08T09:15:00.152Z,16.94
2022-12-08T09:17:29.069Z,16.94
2022-12-08T09:19:56.627Z,16.93
2022-12-08T09:22:24.206Z,16.94
2022-12-08T09:24:51.997Z,16.90
2022-12-08T09:27:19.742Z,16.90
2022-12-08T09:29:47.362Z,16.90
2022-12-08T09:32:15.051Z,16.89
2022-12-08T09:34:47.689Z,16.85
2022-12-08T09:37:21.268Z,16.85
2022-12-08T09:39:48.866Z,16.86
2022-12-08T09:42:16.435Z,16.85
2022-12-08T09:44:46.335Z,16.87
2022-12-08T09:47:15.391Z,16.88
2022-12-08T09:49:47.108Z,16.88
2022-12-08T09:52:15.309Z,16.89
2022-12-08T09:54:42.954Z,16.88
2022-12-08T09:57:14.228Z,16.88
2022-12-08T09:59:41.922Z,16.87
2022-12-08T10:02:12.475Z,16.88
2022-12-08T10:04:40.172Z,16.85
2022-12-08T10:07:13.121Z,16.84
2022-12-08T10:09:41.266Z,16.85
2022-12-08T10:12:11.655Z,16.86
2022-12-08T10:14:40.127Z,16.88
2022-12-08T10:17:10.335Z,16.88
2022-12-08T10:19:37.986Z,16.86
2022-12-08T10:22:06.622Z,16.88
2022-12-08T10:24:38.280Z,16.86
2022-12-08T10:27:06.255Z,16.88
2022-12-08T10:29:34.487Z,16.84
2022-12-08T10:32:02.136Z,16.82
2022-12-08T10:34:29.738Z,16.82
2022-12-08T10:36:57.642Z,16.78
2022-12-08T10:39:32.372Z,16.79
2022-12-08T10:42:09.764Z,16.79
2022-12-08T10:44:39.423Z,16.80
2022-12-08T10:47:12.449Z,16.80
2022-12-08T10:49:40.076Z,16.81
2022-12-08T10:52:10.505Z,16.83
2022-12-08T10:54:38.373Z,16.83
2022-12-08T10:57:06.003Z,16.85
2022-12-08T10:59:35.865Z,16.86
2022-12-08T11:02:03.724Z,16.85
2022-12-08T11:04:35.178Z,16.87
2022-12-08T11:07:03.025Z,16.85
2022-12-08T11:09:36.943Z,16.84
2022-12-08T11:12:07.981Z,16.82
2022-12-08T11:14:39.175Z,16.83
2022-12-08T11:17:07.439Z,16.84
2022-12-08T11:19:37.513Z,16.86
2022-12-08T11:22:05.351Z,16.86
2022-12-08T11:24:37.364Z,16.84
2022-12-08T11:27:06.376Z,16.86
2022-12-08T11:29:34.376Z,16.85
2022-12-08T11:32:04.042Z,16.83
2022-12-08T11:34:35.046Z,16.82
2022-12-08T11:37:03.078Z,16.82
2022-12-08T11:39:30.681Z,16.82
2022-12-08T11:41:58.374Z,16.83
2022-12-08T11:44:28.458Z,16.83
2022-12-08T11:50:52.767Z,16.84
2022-12-08T11:53:23.671Z,16.85
2022-12-08T11:55:52.126Z,16.84
2022-12-08T11:58:23.687Z,16.84
2022-12-08T12:00:51.387Z,16.85
2022-12-08T12:03:21.551Z,16.84
2022-12-08T12:08:45.167Z,16.89
2022-12-08T12:11:34.271Z,16.90
2022-12-08T12:14:03.495Z,16.90
2022-12-08T12:16:55.481Z,16.92
2022-12-08T12:19:23.119Z,16.93
2022-12-08T12:21:51.491Z,16.94
2022-12-08T12:24:25.518Z,16.95
2022-12-08T12:26:58.553Z,16.96
2022-12-08T12:29:27.683Z,16.96
2022-12-08T12:31:56.170Z,16.95
2022-12-08T12:34:24.840Z,16.97
2022-12-08T12:36:53.010Z,16.98
2022-12-08T12:39:22.618Z,16.98
2022-12-08T12:41:51.244Z,16.97
2022-12-08T12:44:24.053Z,16.92
2022-12-08T12:46:55.863Z,16.95
2022-12-08T12:49:43.633Z,16.95
2022-12-08T12:52:26.162Z,16.95
2022-12-08T12:55:09.087Z,16.96
2022-12-08T12:57:38.441Z,16.96
2022-12-08T13:00:10.207Z,16.94
2022-12-08T13:02:39.075Z,16.94
2022-12-08T13:05:09.436Z,16.94
2022-12-08T13:07:37.535Z,16.93
2022-12-08T13:10:05.859Z,16.90
2022-12-08T13:12:33.712Z,16.95
2022-12-08T13:15:04.895Z,16.95
2022-12-08T13:17:33.134Z,16.93
2022-12-08T13:20:01.441Z,16.93
2022-12-08T13:22:48.168Z,16.94
2022-12-08T13:25:36.904Z,16.93
2022-12-08T13:28:09.549Z,16.94
2022-12-08T13:30:45.326Z,16.95
2022-12-08T13:33:18.753Z,16.94
2022-12-08T13:35:49.380Z,16.94
2022-12-08T13:38:17.172Z,16.95
2022-12-08T13:40:44.755Z,16.93
2022-12-08T13:43:16.142Z,16.93
2022-12-08T13:49:52.763Z,16.94
2022-12-08T13:53:34.178Z,16.94
2022-12-08T13:57:08.415Z,16.94
2022-12-08T13:59:37.945Z,16.93
2022-12-08T14:02:13.014Z,16.94
2022-12-08T14:05:16.176Z,16.95
2022-12-08T14:07:29.353Z,16.99
2022-12-08T14:09:56.947Z,17.01
2022-12-08T14:12:24.810Z,17.02
2022-12-08T14:15:08.087Z,17.04
2022-12-08T14:17:37.123Z,17.01
2022-12-08T14:20:06.428Z,17.01
2022-12-08T14:22:34.434Z,16.98
2022-12-08T14:25:02.432Z,16.98
2022-12-08T14:27:33.577Z,16.99
2022-12-08T14:30:01.329Z,17.00
2022-12-08T14:32:30.095Z,17.00
2022-12-08T14:35:00.192Z,16.98
2022-12-08T14:37:28.141Z,17.01
2022-12-08T14:39:58.475Z,17.01
2022-12-08T14:42:26.812Z,17.00
2022-12-08T14:44:58.042Z,17.01
2022-12-08T14:47:27.916Z,17.01
2022-12-08T14:49:55.531Z,17.01
2022-12-08T14:52:24.541Z,17.01
2022-12-08T14:54:52.143Z,17.01
2022-12-08T14:57:19.829Z,17.01
2022-12-08T14:59:48.145Z,17.00
2022-12-08T15:02:24.424Z,17.01
2022-12-08T15:04:55.674Z,17.01
2022-12-08T15:07:25.444Z,17.02
2022-12-08T15:10:07.647Z,17.02
2022-12-08T15:12:35.512Z,17.03
2022-12-08T15:15:03.859Z,17.02
2022-12-08T15:17:33.184Z,17.02
2022-12-08T15:20:00.997Z,17.03
2022-12-08T15:22:30.347Z,17.03
2022-12-08T15:24:57.893Z,17.03
2022-12-08T15:27:26.139Z,17.02
2022-12-08T15:29:53.839Z,17.02
2022-12-08T15:32:22.011Z,17.01
2022-12-08T15:34:49.617Z,17.02
2022-12-08T15:37:20.256Z,16.94
2022-12-08T15:39:49.268Z,16.77
2022-12-08T15:42:16.795Z,16.78
2022-12-08T15:44:44.344Z,16.82
2022-12-08T15:47:14.823Z,16.86
2022-12-08T15:49:42.463Z,16.89
2022-12-08T15:52:13.103Z,16.90
2022-12-08T15:54:41.600Z,16.92
2022-12-08T15:58:10.927Z,16.93
2022-12-08T16:00:02.733Z,16.93
2022-12-08T16:02:56.252Z,16.94
2022-12-08T16:08:30.081Z,16.94
2022-12-08T16:11:56.632Z,16.95
2022-12-08T16:14:35.264Z,16.94
2022-12-08T16:16:52.687Z,16.94
2022-12-08T16:19:20.620Z,16.94
2022-12-08T16:24:36.471Z,16.95
2022-12-08T16:29:53.405Z,16.95
2022-12-08T16:32:21.397Z,16.96
2022-12-08T16:34:49.118Z,16.97
2022-12-08T16:37:16.828Z,16.96
2022-12-08T16:51:47.566Z,16.97
2022-12-08T16:54:15.212Z,16.96
2022-12-08T16:56:42.797Z,16.96
2022-12-08T16:59:10.391Z,16.96
2022-12-08T17:01:38.043Z,16.96
2022-12-08T17:04:35.884Z,16.97
2022-12-08T17:06:54.906Z,16.97
2022-12-08T17:09:22.446Z,16.97
2022-12-08T17:11:50.121Z,16.99
2022-12-08T17:14:17.694Z,16.98
2022-12-08T17:16:45.384Z,16.98
2022-12-08T17:19:13.189Z,16.98
2022-12-08T17:21:40.814Z,16.99
2022-12-08T17:24:09.811Z,16.99
2022-12-08T17:26:37.476Z,16.98
2022-12-08T17:29:05.405Z,16.98
2022-12-08T17:31:33.105Z,16.98
2022-12-08T17:34:00.867Z,16.98
2022-12-08T17:36:28.451Z,16.98
2022-12-08T17:38:56.065Z,16.98
2022-12-08T17:41:25.001Z,16.98
2022-12-08T17:43:52.674Z,16.98
2022-12-08T17:46:20.726Z,17.00
2022-12-08T17:48:48.420Z,17.00
2022-12-08T17:51:15.988Z,17.00
2022-12-08T17:53:43.662Z,17.00
2022-12-08T17:56:15.167Z,17.00
2022-12-08T17:58:45.658Z,17.00
2022-12-08T18:01:15.194Z,17.00
2022-12-08T18:03:42.844Z,17.00
2022-12-08T18:06:11.137Z,17.00
2022-12-08T18:08:38.883Z,17.00
2022-12-08T18:11:06.857Z,17.00
2022-12-08T18:13:34.774Z,17.00
2022-12-08T18:16:03.726Z,17.00
2022-12-08T18:18:31.367Z,17.00
2022-12-08T18:20:59.142Z,17.00
2022-12-08T18:23:26.763Z,16.99
2022-12-08T18:25:54.327Z,17.00
2022-12-08T18:28:22.291Z,17.00
2022-12-08T18:30:50.100Z,17.01
2022-12-08T18:33:19.090Z,17.00
2022-12-08T18:35:46.930Z,17.01
2022-12-08T18:38:14.489Z,17.00
2022-12-08T18:40:42.271Z,17.00
2022-12-08T18:43:09.852Z,17.00
2022-12-08T18:45:39.636Z,17.00
2022-12-08T18:48:08.717Z,17.01
2022-12-08T18:50:37.634Z,17.00
2022-12-08T18:53:05.255Z,17.00
2022-12-08T18:55:32.837Z,17.01
2022-12-08T18:58:00.490Z,17.00
2022-12-08T19:00:28.293Z,17.00
2022-12-08T19:02:55.961Z,17.00
2022-12-08T19:05:23.575Z,17.00
2022-12-08T19:07:53.186Z,17.00
2022-12-08T19:10:20.776Z,17.01
2022-12-08T19:12:50.388Z,17.00
2022-12-08T19:15:18.061Z,17.01
2022-12-08T19:17:45.595Z,17.01
2022-12-08T19:20:13.727Z,17.00
2022-12-08T19:22:41.513Z,17.01
2022-12-08T19:25:10.626Z,17.01
2022-12-08T19:27:38.274Z,17.01
2022-12-08T19:30:06.987Z,17.00
2022-12-08T19:32:34.843Z,17.01
2022-12-08T19:35:07.074Z,17.01
2022-12-08T19:37:34.844Z,17.00
2022-12-08T19:40:19.785Z,17.00
2022-12-08T19:43:06.706Z,17.00
2022-12-08T19:45:35.786Z,17.00
2022-12-08T19:48:03.416Z,17.01
2022-12-08T19:50:37.238Z,17.01
2022-12-08T19:53:05.106Z,17.02
2022-12-08T19:55:32.741Z,17.02
2022-12-08T19:58:02.716Z,17.03
2022-12-08T20:00:30.532Z,17.02
2022-12-08T20:02:58.367Z,17.03
2022-12-08T20:05:26.054Z,17.03
2022-12-08T20:07:56.070Z,17.03
2022-12-08T20:10:24.427Z,17.02
2022-12-08T20:13:12.262Z,17.03
2022-12-08T20:15:41.320Z,17.03
2022-12-08T20:18:09.066Z,17.02
2022-12-08T20:20:37.015Z,17.01
2022-12-08T20:23:04.609Z,17.03
2022-12-08T20:25:32.210Z,17.01
2022-12-08T20:27:59.796Z,17.02
2022-12-08T20:30:27.516Z,17.02
2022-12-08T20:32:56.508Z,17.01
2022-12-08T20:35:24.310Z,17.02
2022-12-08T20:37:52.224Z,17.01
2022-12-08T20:40:20.718Z,17.02
2022-12-08T20:42:48.433Z,17.01
2022-12-08T20:45:16.098Z,17.02
2022-12-08T20:47:43.837Z,17.01
2022-12-08T20:50:13.342Z,17.01
2022-12-08T20:52:40.986Z,17.01
2022-12-08T20:55:09.340Z,17.01
2022-12-08T20:57:37.083Z,17.01
2022-12-08T21:00:05.535Z,17.01
2022-12-08T21:02:33.727Z,17.00
2022-12-08T21:05:01.680Z,17.00
2022-12-08T21:07:30.849Z,17.01
2022-12-08T21:09:58.579Z,17.01
2022-12-08T21:12:26.861Z,17.02
2022-12-08T21:14:54.630Z,17.01
2022-12-08T21:17:22.503Z,17.01
2022-12-08T21:19:50.210Z,17.01
2022-12-08T21:22:18.074Z,17.01
2022-12-08T21:24:47.072Z,17.01
2022-12-08T21:27:14.976Z,17.00
2022-12-08T21:29:42.908Z,16.99
2022-12-08T21:32:10.794Z,17.00
2022-12-08T21:34:38.562Z,17.00
2022-12-08T21:37:06.242Z,17.00
2022-12-08T21:39:34.025Z,17.00
2022-12-08T21:42:22.709Z,17.00
2022-12-08T21:44:50.885Z,17.00
2022-12-08T21:47:18.696Z,17.00
2022-12-08T21:49:46.500Z,16.99
2022-12-08T21:52:14.562Z,17.00
2022-12-08T21:54:42.627Z,16.99
2022-12-08T21:57:12.506Z,16.98
2022-12-08T21:59:40.312Z,16.99
2022-12-08T22:02:10.423Z,16.99
2022-12-08T22:04:38.735Z,16.98
2022-12-08T22:07:07.537Z,16.99
2022-12-08T22:09:35.428Z,16.99
2022-12-08T22:12:03.211Z,16.99
2022-12-08T22:14:32.616Z,16.99
2022-12-08T22:17:00.549Z,17.00
2022-12-08T22:19:28.706Z,17.00
2022-12-08T22:21:57.087Z,16.99
2022-12-08T22:24:24.925Z,16.98
2022-12-08T22:26:52.565Z,16.99
2022-12-08T22:29:20.317Z,17.00
2022-12-08T22:31:49.398Z,17.00
2022-12-08T22:34:17.147Z,16.99
2022-12-08T22:57:10.744Z,16.97
2022-12-08T22:59:40.960Z,16.96
2022-12-08T23:02:09.139Z,16.98
2022-12-08T23:04:37.225Z,16.96
2022-12-08T23:07:05.480Z,16.97
2022-12-08T23:09:33.288Z,16.96
2022-12-08T23:12:00.905Z,16.96
2022-12-08T23:14:30.156Z,16.95
2022-12-08T23:47:14.583Z,16.95
2022-12-08T23:49:42.172Z,16.94
2022-12-08T23:52:11.831Z,16.95
2022-12-08T23:54:39.630Z,16.94
2022-12-08T23:57:07.345Z,16.94
2022-12-08T23:59:37.761Z,16.94
